createdAt,value
2023-10-08T00:01:07.413Z,99696.13
2023-10-08T00:03:35.681Z,99692.72
2023-10-08T00:06:13.855Z,99709.63
2023-10-08T00:08:43.490Z,99711.25
2023-10-08T00:11:12.637Z,99716.19
2023-10-08T00:13:42.586Z,99711.25
2023-10-08T00:16:12.199Z,99702.91
2023-10-08T00:18:42.361Z,99707.03
2023-10-08T00:21:20.723Z,99697.19
2023-10-08T00:23:53.946Z,99713.38
2023-10-08T00:26:29.170Z,99712.69
2023-10-08T00:28:58.496Z,99712.44
2023-10-08T00:31:32.144Z,99719.97
2023-10-08T00:34:00.360Z,99716.31
2023-10-08T00:36:28.899Z,99711.63
2023-10-08T00:39:00.458Z,99712.69
2023-10-08T00:41:32.406Z,99715.97
2023-10-08T00:44:02.182Z,99712.69
2023-10-08T00:46:33.434Z,99720.91
2023-10-08T00:49:21.522Z,99729.00
2023-10-08T00:51:57.388Z,99720.53
2023-10-08T00:54:29.516Z,99723.03
2023-10-08T00:56:59.294Z,99737.34
2023-10-08T00:59:27.535Z,99719.72
2023-10-08T01:02:00.684Z,99724.66
2023-10-08T01:04:29.057Z,99730.06
2023-10-08T01:07:02.442Z,99731.13
2023-10-08T01:09:36.589Z,99729.94
2023-10-08T01:12:14.517Z,99734.28
2023-10-08T01:14:44.657Z,99735.09
2023-10-08T01:17:17.481Z,99738.03
2023-10-08T01:19:46.993Z,99727.81
2023-10-08T01:22:19.893Z,99737.09
2023-10-08T01:24:50.277Z,99753.75
2023-10-08T01:27:23.136Z,99746.72
2023-10-08T01:29:53.263Z,99767.22
2023-10-08T01:32:23.215Z,99775.44
2023-10-08T01:34:51.885Z,99762.19
2023-10-08T01:37:23.019Z,99798.59
2023-10-08T01:39:51.532Z,99772.41
2023-10-08T01:42:19.675Z,99784.94
2023-10-08T01:44:48.821Z,99785.66
2023-10-08T01:47:18.661Z,99769.34
2023-10-08T01:49:48.103Z,99774.19
2023-10-08T01:52:21.825Z,99777.94
2023-10-08T01:54:51.378Z,99782.16
2023-10-08T01:57:19.506Z,99770.09
2023-10-08T01:59:47.537Z,99781.69
2023-10-08T02:02:16.737Z,99781.22
2023-10-08T02:04:45.199Z,99777.69
2023-10-08T02:07:14.170Z,99785.78
2023-10-08T02:09:42.632Z,99782.84
2023-10-08T02:12:15.571Z,99776.63
2023-10-08T02:14:44.005Z,99783.91
2023-10-08T02:17:14.508Z,99782.03
2023-10-08T02:19:42.848Z,99784.97
2023-10-08T02:22:11.812Z,99787.91
2023-10-08T02:24:41.105Z,99790.38
2023-10-08T02:27:10.388Z,99798.94
2023-10-08T02:29:41.007Z,99792.81
2023-10-08T02:32:09.066Z,99805.25
2023-10-08T02:34:37.711Z,99808.31
2023-10-08T02:37:05.940Z,99806.75
2023-10-08T02:39:34.072Z,99806.88
2023-10-08T02:42:04.552Z,99803.81
2023-10-08T02:44:33.379Z,99817.09
2023-10-08T02:47:02.553Z,99828.72
2023-10-08T02:49:33.067Z,99811.09
2023-10-08T02:52:01.068Z,99823.78
2023-10-08T02:54:37.435Z,99825.78
2023-10-08T02:57:11.127Z,99831.88
2023-10-08T02:59:42.208Z,99845.72
2023-10-08T03:02:17.221Z,99841.16
2023-10-08T03:04:46.816Z,99858.16
2023-10-08T03:07:22.799Z,99851.22
2023-10-08T03:09:52.273Z,99848.88
2023-10-08T03:12:20.732Z,99854.28
2023-10-08T03:15:02.528Z,99862.75
2023-10-08T03:17:39.024Z,99868.97
2023-10-08T03:20:30.578Z,99861.91
2023-10-08T03:22:59.395Z,99862.63
2023-10-08T03:25:27.862Z,99858.38
2023-10-08T03:27:56.419Z,99864.59
2023-10-08T03:30:28.022Z,99867.66
2023-10-08T03:32:57.500Z,99871.19
2023-10-08T03:35:32.089Z,99879.97
2023-10-08T03:38:20.746Z,99888.06
2023-10-08T03:40:51.616Z,99900.88
2023-10-08T03:43:26.598Z,99882.19
2023-10-08T03:46:00.586Z,99896.28
2023-10-08T03:48:37.584Z,99893.59
2023-10-08T03:51:13.074Z,99888.19
2023-10-08T03:53:58.804Z,99917.06
2023-10-08T03:56:31.077Z,99906.13
2023-10-08T03:59:02.106Z,99918.34
2023-10-08T04:01:33.404Z,99914.47
2023-10-08T04:04:03.008Z,99910.25
2023-10-08T04:06:32.374Z,99914.25
2023-10-08T04:09:13.207Z,99914.25
2023-10-08T04:11:54.581Z,99917.66
2023-10-08T04:14:25.915Z,99916.25
2023-10-08T04:16:54.753Z,99925.28
2023-10-08T04:19:28.403Z,99918.69
2023-10-08T04:21:57.177Z,99920.81
2023-10-08T04:24:30.569Z,99931.97
2023-10-08T04:26:59.654Z,99915.88
2023-10-08T04:29:32.963Z,99930.44
2023-10-08T04:32:09.080Z,99928.78
2023-10-08T04:34:38.788Z,99939.94
2023-10-08T04:37:13.782Z,99948.50
2023-10-08T04:39:48.773Z,99941.22
2023-10-08T04:42:27.081Z,99941.44
2023-10-08T04:44:56.099Z,99955.63
2023-10-08T04:47:34.037Z,99959.50
2023-10-08T04:50:06.041Z,99962.19
2023-10-08T04:52:35.697Z,99958.91
2023-10-08T04:55:14.297Z,99961.59
2023-10-08T04:57:44.143Z,99959.63
2023-10-08T05:00:16.355Z,99963.72
2023-10-08T05:02:50.775Z,99967.72
2023-10-08T05:05:39.534Z,99981.22
2023-10-08T05:08:26.403Z,99975.69
2023-10-08T05:11:11.158Z,99980.50
2023-10-08T05:13:56.541Z,99974.19
2023-10-08T05:16:45.904Z,99987.09
2023-10-08T05:19:49.345Z,99982.28
2023-10-08T05:22:19.822Z,99987.19
2023-10-08T05:25:08.507Z,99986.75
2023-10-08T05:27:56.778Z,99996.09
2023-10-08T05:30:42.950Z,100000.09
2023-10-08T05:33:26.491Z,100005.41
2023-10-08T05:36:11.372Z,100009.50
2023-10-08T05:38:49.987Z,100012.78
2023-10-08T05:41:39.722Z,100019.38
2023-10-08T05:44:25.472Z,100025.25
2023-10-08T05:47:07.976Z,100029.78
2023-10-08T05:49:55.725Z,100039.19
2023-10-08T05:52:51.989Z,100048.91
2023-10-08T05:55:27.696Z,100051.03
2023-10-08T05:58:14.460Z,100058.88
2023-10-08T06:01:10.202Z,100058.06
2023-10-08T06:03:38.688Z,100066.31
2023-10-08T06:06:41.117Z,100071.13
2023-10-08T06:09:23.060Z,100070.25
2023-10-08T06:12:09.343Z,100080.72
2023-10-08T06:15:08.570Z,100080.38
2023-10-08T06:17:59.188Z,100090.25
2023-10-08T06:20:28.516Z,100087.66
2023-10-08T06:23:02.908Z,100091.19
2023-10-08T06:25:31.629Z,100087.94
2023-10-08T06:28:03.976Z,100092.41
2023-10-08T06:30:36.000Z,100104.88
2023-10-08T06:33:05.146Z,100099.34
2023-10-08T06:35:34.453Z,100117.09
2023-10-08T06:38:08.706Z,100107.47
2023-10-08T06:40:46.013Z,100114.88
2023-10-08T06:43:18.288Z,100108.91
2023-10-08T06:45:48.442Z,100120.06
2023-10-08T06:48:21.778Z,100124.41
2023-10-08T06:50:52.173Z,100135.69
2023-10-08T06:53:20.498Z,100136.88
2023-10-08T06:55:49.583Z,100142.13
2023-10-08T06:58:19.147Z,100145.19
2023-10-08T07:00:50.370Z,100149.06
2023-10-08T07:03:19.820Z,100158.72
2023-10-08T07:05:59.458Z,100160.47
2023-10-08T07:08:30.698Z,100173.88
2023-10-08T07:11:00.108Z,100179.88
2023-10-08T07:13:30.897Z,100183.50
2023-10-08T07:15:59.159Z,100185.97
2023-10-08T07:18:27.401Z,100188.06
2023-10-08T07:20:56.928Z,100193.84
2023-10-08T07:23:28.213Z,100201.25
2023-10-08T07:26:03.091Z,100200.53
2023-10-08T07:28:32.238Z,100200.44
2023-10-08T07:31:00.785Z,100217.00
2023-10-08T07:33:37.963Z,100205.22
2023-10-08T07:36:15.598Z,100220.84
2023-10-08T07:38:44.454Z,100210.97
2023-10-08T07:41:16.603Z,100225.06
2023-10-08T07:43:55.895Z,100215.41
2023-10-08T07:46:24.016Z,100219.28
2023-10-08T07:48:59.479Z,100220.22
2023-10-08T07:51:28.749Z,100223.84
2023-10-08T07:53:57.418Z,100230.50
2023-10-08T07:56:26.531Z,100230.03
2023-10-08T07:58:59.346Z,100231.44
2023-10-08T08:01:27.416Z,100216.13
2023-10-08T08:03:55.671Z,100212.47
2023-10-08T08:06:26.970Z,100227.72
2023-10-08T08:08:56.350Z,100225.63
2023-10-08T08:11:35.051Z,100215.91
2023-10-08T08:14:09.014Z,100208.63
2023-10-08T08:16:39.128Z,100221.75
2023-10-08T08:19:07.935Z,100217.84
2023-10-08T08:21:35.670Z,100211.09
2023-10-08T08:24:07.004Z,100208.16
2023-10-08T08:26:40.959Z,100211.19
2023-10-08T08:29:16.626Z,100202.91
2023-10-08T08:31:47.799Z,100217.72
2023-10-08T08:34:20.979Z,100211.78
2023-10-08T08:36:50.331Z,100218.38
2023-10-08T08:39:29.795Z,100222.22
2023-10-08T08:42:05.446Z,100236.94
2023-10-08T08:44:37.365Z,100216.66
2023-10-08T08:47:07.845Z,100233.00
2023-10-08T08:49:42.013Z,100238.75
2023-10-08T08:52:13.855Z,100245.34
2023-10-08T08:54:43.393Z,100253.53
2023-10-08T08:57:15.254Z,100246.56
2023-10-08T08:59:50.493Z,100219.28
2023-10-08T09:02:19.922Z,100243.19
2023-10-08T09:04:55.068Z,100248.47
2023-10-08T09:07:24.556Z,100250.94
2023-10-08T09:09:53.939Z,100258.41
2023-10-08T09:12:22.801Z,100260.13
2023-10-08T09:14:52.412Z,100253.38
2023-10-08T09:17:29.134Z,100272.72
2023-10-08T09:19:57.629Z,100275.00
2023-10-08T09:22:28.367Z,100278.59
2023-10-08T09:24:56.446Z,100273.75
2023-10-08T09:27:28.541Z,100265.66
2023-10-08T09:29:58.916Z,100288.19
2023-10-08T09:32:28.181Z,100281.22
2023-10-08T09:34:58.109Z,100283.41
2023-10-08T09:37:26.949Z,100290.47
2023-10-08T09:39:56.840Z,100287.84
2023-10-08T09:42:25.778Z,100292.75
2023-10-08T09:44:54.196Z,100300.16
2023-10-08T09:47:34.163Z,100297.28
2023-10-08T09:50:08.843Z,100290.75
2023-10-08T09:52:45.782Z,100285.91
2023-10-08T09:55:13.911Z,100300.38
2023-10-08T09:57:42.656Z,100310.53
2023-10-08T10:00:19.778Z,100313.91
2023-10-08T10:02:49.375Z,100324.81
2023-10-08T10:05:22.954Z,100336.75
2023-10-08T10:07:51.102Z,100327.84
2023-10-08T10:10:29.049Z,100341.75
2023-10-08T10:13:00.895Z,100336.56
2023-10-08T10:15:31.750Z,100335.81
2023-10-08T10:18:11.703Z,100337.50
2023-10-08T10:20:52.649Z,100334.56
2023-10-08T10:23:41.453Z,100326.78
2023-10-08T10:26:26.391Z,100336.56
2023-10-08T10:29:27.758Z,100336.59
2023-10-08T10:32:00.270Z,100329.28
2023-10-08T10:34:31.736Z,100330.97
2023-10-08T10:37:10.149Z,100333.44
2023-10-08T10:39:43.029Z,100335.41
2023-10-08T10:42:21.881Z,100330.25
2023-10-08T10:44:54.737Z,100333.31
2023-10-08T10:47:29.063Z,100328.22
2023-10-08T10:50:12.434Z,100333.13
2023-10-08T10:52:55.484Z,100337.00
2023-10-08T10:55:33.229Z,100328.50
2023-10-08T10:58:15.829Z,100344.13
2023-10-08T11:00:53.472Z,100339.25
2023-10-08T11:03:28.846Z,100332.19
2023-10-08T11:06:07.526Z,100336.63
2023-10-08T11:08:36.955Z,100339.91
2023-10-08T11:11:11.010Z,100341.66
2023-10-08T11:13:44.666Z,100351.75
2023-10-08T11:16:23.451Z,100360.72
2023-10-08T11:18:59.063Z,100367.66
2023-10-08T11:21:37.780Z,100369.56
2023-10-08T11:24:28.892Z,100374.94
2023-10-08T11:27:08.470Z,100374.03
2023-10-08T11:29:39.661Z,100371.13
2023-10-08T11:32:13.790Z,100389.13
2023-10-08T11:34:44.509Z,100388.63
2023-10-08T11:37:25.026Z,100390.59
2023-10-08T11:39:54.319Z,100380.34
2023-10-08T11:42:41.467Z,100398.72
2023-10-08T11:45:25.378Z,100409.97
2023-10-08T11:47:58.298Z,100383.53
2023-10-08T11:50:31.943Z,100390.09
2023-10-08T11:53:08.512Z,100391.22
2023-10-08T11:55:40.253Z,100400.03
2023-10-08T11:58:12.309Z,100405.56
2023-10-08T12:00:45.700Z,100403.66
2023-10-08T12:03:19.451Z,100404.44
2023-10-08T12:05:51.908Z,100377.16
2023-10-08T12:08:26.445Z,100379.31
2023-10-08T12:10:56.257Z,100383.75
2023-10-08T12:13:30.133Z,100373.72
2023-10-08T12:16:07.802Z,100379.25
2023-10-08T12:18:54.899Z,100370.25
2023-10-08T12:21:23.097Z,100362.03
2023-10-08T12:23:52.784Z,100347.06
2023-10-08T12:26:20.948Z,100358.75
2023-10-08T12:28:49.723Z,100353.59
2023-10-08T12:31:23.461Z,100356.91
2023-10-08T12:33:54.948Z,100350.38
2023-10-08T12:36:28.792Z,100356.97
2023-10-08T12:38:59.789Z,100364.38
2023-10-08T12:41:29.040Z,100355.06
2023-10-08T12:43:59.381Z,100356.88
2023-10-08T12:46:27.592Z,100364.75
2023-10-08T12:48:56.991Z,100347.56
2023-10-08T12:51:26.852Z,100347.88
2023-10-08T12:54:04.924Z,100375.66
2023-10-08T12:56:37.531Z,100361.47
2023-10-08T12:59:08.612Z,100368.50
2023-10-08T13:01:37.856Z,100366.94
2023-10-08T13:04:17.126Z,100368.63
2023-10-08T13:06:48.249Z,100370.56
2023-10-08T13:09:16.435Z,100382.53
2023-10-08T13:11:47.031Z,100379.31
2023-10-08T13:14:15.444Z,100373.53
2023-10-08T13:16:46.202Z,100379.00
2023-10-08T13:19:17.119Z,100380.06
2023-10-08T13:21:45.304Z,100372.81
2023-10-08T13:24:14.443Z,100379.81
2023-10-08T13:26:43.380Z,100386.25
2023-10-08T13:29:12.871Z,100381.75
2023-10-08T13:31:41.045Z,100389.06
2023-10-08T13:34:14.287Z,100392.22
2023-10-08T13:36:43.401Z,100387.59
2023-10-08T13:39:19.443Z,100387.75
2023-10-08T13:41:52.253Z,100390.13
2023-10-08T13:44:31.618Z,100374.31
2023-10-08T13:47:01.529Z,100382.16
2023-10-08T13:49:30.905Z,100381.06
2023-10-08T13:51:59.139Z,100381.34
2023-10-08T13:54:32.352Z,100381.69
2023-10-08T13:57:04.015Z,100383.31
2023-10-08T13:59:39.635Z,100385.63
2023-10-08T14:02:15.741Z,100391.41
2023-10-08T14:04:44.970Z,100392.94
2023-10-08T14:07:18.232Z,100388.69
2023-10-08T14:09:50.294Z,100398.34
2023-10-08T14:12:18.384Z,100397.34
2023-10-08T14:14:50.381Z,100386.53
2023-10-08T14:17:38.753Z,100384.59
2023-10-08T14:20:16.080Z,100385.22
2023-10-08T14:22:46.276Z,100383.16
2023-10-08T14:25:15.918Z,100380.69
2023-10-08T14:27:54.229Z,100390.91
2023-10-08T14:30:42.281Z,100384.84
2023-10-08T14:33:14.641Z,100378.38
2023-10-08T14:36:05.732Z,100389.41
2023-10-08T14:38:53.873Z,100390.09
2023-10-08T14:41:39.230Z,100386.31
2023-10-08T14:44:08.021Z,100378.03
2023-10-08T14:46:38.145Z,100377.84
2023-10-08T14:49:12.165Z,100386.59
2023-10-08T14:51:45.069Z,100389.28
2023-10-08T14:54:16.141Z,100383.28
2023-10-08T14:56:44.300Z,100391.59
2023-10-08T14:59:14.464Z,100382.59
2023-10-08T15:01:45.896Z,100383.56
2023-10-08T15:04:16.306Z,100379.19
2023-10-08T15:06:45.515Z,100383.81
2023-10-08T15:09:19.878Z,100375.56
2023-10-08T15:11:50.287Z,100388.00
2023-10-08T15:14:25.012Z,100377.97
2023-10-08T15:16:56.380Z,100379.13
2023-10-08T15:19:30.375Z,100393.59
2023-10-08T15:22:02.578Z,100377.25
2023-10-08T15:24:30.898Z,100383.59
2023-10-08T15:27:01.526Z,100383.91
2023-10-08T15:29:29.792Z,100374.47
2023-10-08T15:31:59.630Z,100381.47
2023-10-08T15:34:36.999Z,100384.34
2023-10-08T15:37:08.613Z,100388.53
2023-10-08T15:39:36.703Z,100384.09
2023-10-08T15:42:07.603Z,100383.78
2023-10-08T15:44:36.486Z,100394.22
2023-10-08T15:47:19.300Z,100397.75
2023-10-08T15:49:47.829Z,100399.69
2023-10-08T15:52:24.704Z,100405.06
2023-10-08T15:54:52.933Z,100401.63
2023-10-08T15:57:23.380Z,100406.56
2023-10-08T15:59:52.134Z,100402.97
2023-10-08T16:02:23.863Z,100405.53
2023-10-08T16:04:52.185Z,100407.34
2023-10-08T16:07:23.913Z,100402.59
2023-10-08T16:09:54.019Z,100404.88
2023-10-08T16:12:33.985Z,100407.66
2023-10-08T16:15:04.362Z,100415.63
2023-10-08T16:17:40.390Z,100418.13
2023-10-08T16:20:16.688Z,100414.63
2023-10-08T16:22:52.205Z,100420.19
2023-10-08T16:25:20.327Z,100422.16
2023-10-08T16:27:50.567Z,100422.84
2023-10-08T16:30:24.495Z,100422.53
2023-10-08T16:33:00.467Z,100415.47
2023-10-08T16:35:35.098Z,100417.41
2023-10-08T16:38:03.741Z,100428.97
2023-10-08T16:40:32.781Z,100417.34
2023-10-08T16:43:02.034Z,100409.31
2023-10-08T16:48:22.839Z,100409.31
2023-10-08T16:50:52.384Z,100401.94
2023-10-08T16:53:21.352Z,100414.28
2023-10-08T16:55:51.218Z,100409.34
2023-10-08T16:58:19.736Z,100413.59
2023-10-08T17:00:58.432Z,100414.28
2023-10-08T17:03:29.859Z,100413.97
2023-10-08T17:05:58.287Z,100410.63
2023-10-08T17:08:33.320Z,100409.00
2023-10-08T17:11:04.284Z,100399.91
2023-10-08T17:13:38.182Z,100402.28
2023-10-08T17:16:08.684Z,100403.34
2023-10-08T17:18:44.026Z,100406.53
2023-10-08T17:21:12.244Z,100402.63
2023-10-08T17:23:45.354Z,100400.16
2023-10-08T17:26:19.599Z,100388.28
2023-10-08T17:28:47.648Z,100383.34
2023-10-08T17:31:15.813Z,100375.44
2023-10-08T17:33:45.897Z,100383.81
2023-10-08T17:36:17.352Z,100382.88
2023-10-08T17:38:45.574Z,100385.44
2023-10-08T17:41:17.354Z,100383.56
2023-10-08T17:43:45.405Z,100381.41
2023-10-08T17:46:16.651Z,100384.34
2023-10-08T17:48:46.178Z,100387.78
2023-10-08T17:51:15.550Z,100381.41
2023-10-08T17:53:43.677Z,100385.25
2023-10-08T17:56:12.581Z,100386.75
2023-10-08T17:58:40.706Z,100401.78
2023-10-08T18:01:17.979Z,100383.06
2023-10-08T18:03:55.476Z,100386.78
2023-10-08T18:06:26.113Z,100380.50
2023-10-08T18:08:57.621Z,100383.09
2023-10-08T18:11:30.518Z,100378.94
2023-10-08T18:14:02.288Z,100372.44
2023-10-08T18:16:30.505Z,100375.91
2023-10-08T18:19:00.279Z,100373.50
2023-10-08T18:21:30.074Z,100366.91
2023-10-08T18:24:01.637Z,100360.09
2023-10-08T18:30:49.433Z,100362.16
2023-10-08T18:33:19.629Z,100361.34
2023-10-08T18:35:49.089Z,100366.81
2023-10-08T18:38:20.700Z,100361.28
2023-10-08T18:40:48.664Z,100360.34
2023-10-08T18:43:20.183Z,100367.84
2023-10-08T18:45:50.443Z,100359.59
2023-10-08T18:48:18.633Z,100352.19
2023-10-08T18:50:48.121Z,100353.22
2023-10-08T18:53:23.314Z,100359.50
2023-10-08T18:55:54.216Z,100349.59
2023-10-08T18:58:22.261Z,100354.41
2023-10-08T19:00:50.363Z,100353.22
2023-10-08T19:03:19.132Z,100356.19
2023-10-08T19:05:48.435Z,100362.16
2023-10-08T19:08:16.568Z,100354.69
2023-10-08T19:10:47.656Z,100360.81
2023-10-08T19:13:15.677Z,100362.88
2023-10-08T19:15:45.983Z,100357.06
2023-10-08T19:18:16.800Z,100352.72
2023-10-08T19:20:50.046Z,100345.03
2023-10-08T19:23:18.331Z,100348.38
2023-10-08T19:25:51.747Z,100347.75
2023-10-08T19:28:21.112Z,100349.03
2023-10-08T19:30:52.561Z,100345.94
2023-10-08T19:33:21.244Z,100341.16
2023-10-08T19:35:57.741Z,100339.16
2023-10-08T19:38:26.347Z,100335.84
2023-10-08T19:40:54.413Z,100339.41
2023-10-08T19:43:25.466Z,100340.47
2023-10-08T19:45:53.739Z,100342.13
2023-10-08T19:48:23.893Z,100342.75
2023-10-08T19:50:55.101Z,100347.25
2023-10-08T19:53:25.577Z,100333.66
2023-10-08T19:55:53.629Z,100340.88
2023-10-08T19:58:24.819Z,100333.69
2023-10-08T20:00:53.992Z,100330.28
2023-10-08T20:03:22.880Z,100333.13
2023-10-08T20:05:51.686Z,100334.34
2023-10-08T20:08:21.681Z,100334.13
2023-10-08T20:10:49.880Z,100320.69
2023-10-08T20:13:22.168Z,100316.00
2023-10-08T20:15:52.711Z,100319.94
2023-10-08T20:18:22.286Z,100309.59
2023-10-08T20:20:51.053Z,100314.59
2023-10-08T20:23:30.674Z,100303.00
2023-10-08T20:25:58.944Z,100307.94
2023-10-08T20:28:28.296Z,100306.09
2023-10-08T20:30:56.674Z,100303.22
2023-10-08T20:33:25.251Z,100306.13
2023-10-08T20:35:54.401Z,100298.88
2023-10-08T20:38:24.879Z,100294.69
2023-10-08T20:40:53.189Z,100297.59
2023-10-08T20:43:24.656Z,100305.09
2023-10-08T20:45:52.758Z,100297.69
2023-10-08T20:48:20.877Z,100287.31
2023-10-08T20:50:48.988Z,100287.09
2023-10-08T20:53:17.506Z,100284.84
2023-10-08T20:55:49.982Z,100278.69
2023-10-08T20:58:19.764Z,100279.91
2023-10-08T21:00:48.445Z,100276.41
2023-10-08T21:03:17.942Z,100273.31
2023-10-08T21:05:48.277Z,100278.88
2023-10-08T21:08:16.650Z,100279.47
2023-10-08T21:11:00.532Z,100272.41
2023-10-08T21:13:31.103Z,100270.59
2023-10-08T21:16:01.720Z,100267.53
2023-10-08T21:18:31.012Z,100267.97
2023-10-08T21:20:59.541Z,100265.50
2023-10-08T21:23:28.505Z,100264.22
2023-10-08T21:25:58.023Z,100258.00
2023-10-08T21:28:26.094Z,100256.38
2023-10-08T21:30:54.093Z,100250.19
2023-10-08T21:33:24.309Z,100252.91
2023-10-08T21:35:53.355Z,100248.13
2023-10-08T21:38:24.677Z,100243.09
2023-10-08T21:41:01.831Z,100239.31
2023-10-08T21:43:33.868Z,100238.03
2023-10-08T21:46:02.002Z,100232.81
2023-10-08T21:48:30.881Z,100228.06
2023-10-08T21:50:59.012Z,100221.78
2023-10-08T21:53:27.299Z,100213.28
2023-10-08T21:55:55.419Z,100213.94
2023-10-08T21:58:25.119Z,100207.72
2023-10-08T22:01:11.987Z,100220.13
2023-10-08T22:03:42.185Z,100207.53
2023-10-08T22:06:10.854Z,100202.97
2023-10-08T22:08:39.044Z,100198.03
2023-10-08T22:11:08.910Z,100196.81
2023-10-08T22:13:38.891Z,100198.28
2023-10-08T22:16:18.740Z,100195.34
2023-10-08T22:18:52.449Z,100188.66
2023-10-08T22:21:23.946Z,100186.81
2023-10-08T22:23:57.484Z,100186.13
2023-10-08T22:26:26.228Z,100185.69
2023-10-08T22:28:58.555Z,100185.69
2023-10-08T22:31:27.101Z,100176.94
2023-10-08T22:34:05.606Z,100183.75
2023-10-08T22:36:42.907Z,100179.41
2023-10-08T22:39:21.485Z,100186.81
2023-10-08T22:41:56.017Z,100181.19
2023-10-08T22:44:27.551Z,100179.31
2023-10-08T22:47:11.232Z,100176.25
2023-10-08T22:49:42.074Z,100170.94
2023-10-08T22:52:10.770Z,100172.81
2023-10-08T22:54:39.444Z,100163.75
2023-10-08T22:57:07.510Z,100162.94
2023-10-08T22:59:42.699Z,100156.31
2023-10-08T23:02:14.367Z,100154.84
2023-10-08T23:04:45.336Z,100154.25
2023-10-08T23:07:13.592Z,100149.69
2023-10-08T23:09:41.750Z,100150.94
2023-10-08T23:12:10.894Z,100143.00
2023-10-08T23:14:41.160Z,100143.47
2023-10-08T23:17:13.143Z,100145.09
2023-10-08T23:19:41.729Z,100134.16
2023-10-08T23:22:11.456Z,100139.78
2023-10-08T23:24:39.479Z,100149.28
2023-10-08T23:27:10.110Z,100146.81
2023-10-08T23:29:38.316Z,100145.53
2023-10-08T23:32:09.171Z,100146.47
2023-10-08T23:34:38.946Z,100142.31
2023-10-08T23:37:22.831Z,100143.59
2023-10-08T23:39:51.187Z,100141.13
2023-10-08T23:42:33.466Z,100130.94
2023-10-08T23:45:06.644Z,100131.00
2023-10-08T23:47:38.108Z,100134.59
2023-10-08T23:50:15.737Z,100124.34
2023-10-08T23:52:48.932Z,100121.88
2023-10-08T23:55:24.735Z,100124.88
2023-10-08T23:58:07.976Z,100130.84
